CEST,Max TemperatureF,Mean TemperatureF,Min TemperatureF,Max Dew PointF,MeanDew PointF,Min DewpointF,Max Humidity, Mean Humidity, Min Humidity, Max Sea Level PressureIn, Mean Sea Level PressureIn, Min Sea Level PressureIn, Max VisibilityMiles, Mean VisibilityMiles, Min VisibilityMiles, Max Wind SpeedMPH, Mean Wind SpeedMPH, Max Gust SpeedMPH,PrecipitationIn, CloudCover, Events, WindDirDegrees
2013-7-1,82,70,59,61,52,46,88,50,32,30.15,30.06,29.98,6,6,6,9,4,,0.00,4,Rain-Thunderstorm,165
2013-7-2,84,70,57,59,58,55,100,59,39,30.12,30.04,29.98,6,6,6,13,3,,0.00,2,,170
2013-7-3,80,72,64,64,61,59,88,65,48,30.01,29.96,29.92,6,6,6,7,2,,0.00,4,Rain,250
2013-7-4,89,74,59,61,57,54,88,53,31,30.12,30.05,30.01,6,6,6,10,3,,0.00,2,,140
2013-7-5,91,78,64,63,58,54,83,48,28,30.24,30.15,30.09,6,6,6,9,2,,0.00,2,,175
2013-7-6,91,80,68,61,57,52,68,45,26,30.24,30.16,30.09,6,6,6,10,4,,0.00,2,,161
2013-7-7,86,75,64,61,60,59,88,57,40,30.27,30.20,30.15,6,6,6,9,3,,0.00,4,,167
2013-7-8,89,76,64,64,62,57,94,57,38,30.27,30.19,30.12,6,6,3,28,5,46,0.00,3,Rain-Thunderstorm,166
2013-7-9,89,76,64,70,65,57,100,70,40,30.24,30.11,30.01,6,6,6,7,2,,0.00,3,Thunderstorm,170
2013-7-10,87,76,66,64,63,59,94,61,41,30.04,29.94,29.85,12,7,6,9,4,,0.02,2,,162
2013-7-11,91,77,63,64,59,46,94,50,20,29.96,29.85,29.73,9,7,6,7,3,,0.00,2,,167
2013-7-12,88,75,62,64,58,49,68,48,28,30.04,29.97,29.91,16,9,6,81,7,,0.00,1,,160
2013-7-13,88,78,67,65,61,57,74,54,31,30.06,29.98,29.88,9,7,6,101,7,,0.00,4,Rain,171
2013-7-14,90,72,53,75,57,50,100,55,19,30.12,30.04,29.94,19,12,9,20,4,,0.00,,,165
2013-7-15,92,76,61,63,57,50,82,48,15,30.12,30.03,29.91,16,8,6,16,3,,0.00,1,,172
2013-7-16,91,76,61,64,59,52,77,49,27,30.18,30.10,29.99,19,16,9,20,5,,0.00,,,168
2013-7-17,89,78,68,67,64,61,94,58,37,30.15,30.08,30.01,7,6,6,12,5,23,0.00,3,,168
2013-7-18,84,75,66,64,62,57,88,62,45,30.15,30.10,30.06,6,6,6,12,3,29,0.00,4,Thunderstorm,162
2013-7-19,91,78,64,66,60,54,94,58,29,30.15,30.06,29.95,6,6,6,10,2,,0.00,3,Rain-Thunderstorm,176
2013-7-20,89,76,62,63,60,55,94,55,33,30.09,30.01,29.92,6,6,6,9,4,,0.00,3,,147
2013-7-21,91,78,66,66,65,61,100,63,36,30.12,30.05,29.98,6,6,6,12,4,,0.00,2,,183
2013-7-22,95,80,66,68,64,59,94,63,36,30.09,30.01,29.89,6,6,4,26,5,45,0.00,3,Rain-Thunderstorm,165
2013-7-23,91,76,62,64,61,55,100,57,35,30.04,29.95,29.86,6,6,6,8,4,,0.00,3,,164
2013-7-24,91,78,64,66,62,57,88,61,34,30.06,29.98,29.89,6,6,6,18,5,23,0.00,4,Rain-Thunderstorm,163
2013-7-25,93,78,62,64,62,57,100,57,30,30.12,30.01,29.92,6,6,6,8,3,,0.00,1,,166
2013-7-26,95,82,69,70,66,63,83,58,40,30.06,30.00,29.92,6,6,6,9,4,,0.00,3,,174
2013-7-27,96,82,69,68,66,64,88,56,37,30.01,29.93,29.86,6,6,6,13,4,,0.00,1,,170
2013-7-28,98,84,71,68,63,57,73,46,28,30.04,29.95,29.86,6,6,6,9,3,,0.00,2,,178
2013-7-29,84,73,62,68,64,61,100,72,45,30.06,29.98,29.89,6,6,2,21,4,38,0.00,5,Rain-Thunderstorm,184
2013-7-30,87,72,57,59,54,48,100,53,25,30.15,30.07,30.01,6,6,6,8,4,,0.00,1,,309
2013-7-31,93,76,60,61,56,54,77,48,26,30.18,30.07,29.98,6,6,6,9,3,,0.00,1,,171